createdAt,value
2022-10-12T00:01:57.585Z,11.35
2022-10-12T00:04:39.586Z,11.39
2022-10-12T00:07:20.547Z,11.38
2022-10-12T00:10:02.482Z,11.32
2022-10-12T00:12:43.036Z,11.30
2022-10-12T00:15:21.483Z,11.29
2022-10-12T00:18:01.488Z,11.20
2022-10-12T00:20:43.504Z,11.20
2022-10-12T00:23:22.544Z,11.22
2022-10-12T00:26:08.506Z,11.10
2022-10-12T00:28:46.381Z,11.19
2022-10-12T00:31:26.909Z,11.21
2022-10-12T00:34:08.673Z,11.18
2022-10-12T00:36:46.420Z,11.16
2022-10-12T00:39:23.091Z,11.06
2022-10-12T00:42:06.082Z,11.13
2022-10-12T00:44:47.599Z,11.14
2022-10-12T00:47:27.985Z,11.16
2022-10-12T00:50:10.577Z,11.14
2022-10-12T00:52:49.472Z,11.14
2022-10-12T00:55:28.511Z,11.11
2022-10-12T00:58:09.513Z,11.05
2022-10-12T01:00:46.092Z,11.02
2022-10-12T01:03:23.520Z,11.08
2022-10-12T01:06:00.536Z,11.08
2022-10-12T01:08:37.528Z,11.02
2022-10-12T01:11:15.556Z,10.98
2022-10-12T01:13:54.301Z,10.93
2022-10-12T01:16:34.185Z,10.87
2022-10-12T01:19:23.527Z,10.81
2022-10-12T01:22:06.750Z,10.73
2022-10-12T01:24:58.551Z,10.75
2022-10-12T01:27:47.489Z,10.77
2022-10-12T01:30:29.902Z,10.78
2022-10-12T01:33:31.965Z,10.79
2022-10-12T01:36:11.542Z,10.84
2022-10-12T01:38:55.276Z,10.83
2022-10-12T01:41:39.622Z,10.85
2022-10-12T01:44:22.668Z,10.86
2022-10-12T01:47:09.221Z,10.88
2022-10-12T01:49:48.453Z,10.90
2022-10-12T01:52:32.610Z,10.88
2022-10-12T01:55:37.680Z,10.84
2022-10-12T01:58:37.161Z,10.74
2022-10-12T02:01:24.310Z,10.67
2022-10-12T02:04:12.754Z,10.70
2022-10-12T02:06:53.285Z,10.79
2022-10-12T02:09:34.497Z,10.76
2022-10-12T02:12:13.368Z,10.77
2022-10-12T02:14:53.580Z,10.73
2022-10-12T02:17:31.640Z,10.74
2022-10-12T02:20:12.919Z,10.73
2022-10-12T02:22:53.688Z,10.74
2022-10-12T02:25:33.237Z,10.77
2022-10-12T02:28:16.614Z,10.68
2022-10-12T02:31:03.917Z,10.76
2022-10-12T02:33:46.511Z,10.79
2022-10-12T02:36:31.620Z,10.82
2022-10-12T02:39:11.294Z,10.76
2022-10-12T02:41:53.594Z,10.74
2022-10-12T02:44:33.643Z,10.70
2022-10-12T02:47:16.326Z,10.69
2022-10-12T02:49:54.659Z,10.55
2022-10-12T02:52:37.139Z,10.63
2022-10-12T02:55:14.925Z,10.64
2022-10-12T02:57:50.773Z,10.62
2022-10-12T03:00:31.639Z,10.63
2022-10-12T03:03:14.406Z,10.61
2022-10-12T03:05:54.077Z,10.57
2022-10-12T03:08:37.799Z,10.52
2022-10-12T03:11:19.503Z,10.46
2022-10-12T03:14:03.611Z,10.44
2022-10-12T03:16:46.392Z,10.37
2022-10-12T03:19:23.807Z,10.32
2022-10-12T03:22:05.411Z,10.28
2022-10-12T03:24:44.023Z,10.22
2022-10-12T03:27:23.624Z,10.16
2022-10-12T03:30:04.663Z,10.08
2022-10-12T03:32:43.628Z,10.10
2022-10-12T03:35:22.375Z,10.03
2022-10-12T03:38:05.630Z,9.96
2022-10-12T03:40:51.675Z,9.94
2022-10-12T03:43:32.964Z,9.92
2022-10-12T03:46:09.719Z,9.88
2022-10-12T03:48:51.315Z,9.87
2022-10-12T03:51:27.637Z,9.80
2022-10-12T03:54:10.766Z,9.77
2022-10-12T03:56:51.499Z,9.73
2022-10-12T03:59:33.693Z,9.72
2022-10-12T04:02:15.819Z,9.71
2022-10-12T04:05:00.882Z,9.69
2022-10-12T04:07:39.357Z,9.67
2022-10-12T04:10:18.645Z,9.66
2022-10-12T04:13:02.652Z,9.63
2022-10-12T04:15:42.650Z,9.60
2022-10-12T04:18:19.695Z,9.58
2022-10-12T04:20:59.663Z,9.53
2022-10-12T04:23:37.818Z,9.49
2022-10-12T04:26:20.824Z,9.48
2022-10-12T04:29:01.764Z,9.45
2022-10-12T04:31:42.192Z,9.46
2022-10-12T04:34:17.669Z,9.45
2022-10-12T04:36:52.771Z,9.42
2022-10-12T04:39:25.010Z,9.41
2022-10-12T04:41:57.583Z,9.38
2022-10-12T04:44:32.367Z,9.35
2022-10-12T04:47:04.806Z,9.34
2022-10-12T04:49:35.921Z,9.33
2022-10-12T04:52:07.625Z,9.34
2022-10-12T04:54:41.963Z,9.34
2022-10-12T04:57:15.418Z,9.30
2022-10-12T04:59:49.928Z,9.30
2022-10-12T05:02:23.161Z,9.30
2022-10-12T05:04:54.031Z,9.29
2022-10-12T05:07:25.590Z,9.29
2022-10-12T05:09:56.222Z,9.27
2022-10-12T05:12:27.661Z,9.27
2022-10-12T05:15:00.619Z,9.27
2022-10-12T05:17:32.046Z,9.26
2022-10-12T05:20:03.025Z,9.23
2022-10-12T05:22:34.768Z,9.25
2022-10-12T05:25:05.983Z,9.23
2022-10-12T05:27:37.909Z,9.16
2022-10-12T05:30:11.994Z,9.23
2022-10-12T05:32:44.723Z,9.25
2022-10-12T05:35:14.847Z,9.27
2022-10-12T05:37:45.603Z,9.31
2022-10-12T05:40:17.578Z,9.34
2022-10-12T05:42:47.964Z,9.37
2022-10-12T05:45:21.083Z,9.43
2022-10-12T05:47:52.371Z,9.50
2022-10-12T05:50:22.796Z,9.57
2022-10-12T05:52:53.266Z,9.59
2022-10-12T05:55:23.335Z,9.63
2022-10-12T05:57:55.931Z,9.59
2022-10-12T06:00:30.174Z,9.74
2022-10-12T06:03:02.409Z,9.80
2022-10-12T06:05:34.211Z,9.85
2022-10-12T06:08:07.756Z,9.88
2022-10-12T06:10:38.940Z,9.96
2022-10-12T06:13:10.114Z,10.06
2022-10-12T06:15:42.116Z,10.13
2022-10-12T06:18:12.107Z,10.17
2022-10-12T06:20:43.373Z,10.23
2022-10-12T06:23:13.902Z,10.29
2022-10-12T06:25:45.787Z,10.32
2022-10-12T06:28:16.328Z,10.38
2022-10-12T06:30:50.097Z,10.46
2022-10-12T06:33:21.351Z,10.44
2022-10-12T06:35:51.836Z,10.51
2022-10-12T06:38:23.214Z,10.56
2022-10-12T06:40:53.835Z,10.61
2022-10-12T06:43:25.262Z,10.69
2022-10-12T06:45:57.568Z,10.78
2022-10-12T06:48:27.687Z,10.90
2022-10-12T06:50:57.269Z,11.01
2022-10-12T06:53:31.478Z,11.13
2022-10-12T06:56:02.959Z,11.26
2022-10-12T06:58:35.779Z,11.33
2022-10-12T07:01:12.515Z,11.37
2022-10-12T07:03:44.936Z,11.47
2022-10-12T07:06:19.041Z,11.62
2022-10-12T07:08:52.007Z,11.77
2022-10-12T07:11:23.501Z,11.95
2022-10-12T07:13:55.178Z,12.15
2022-10-12T07:16:30.081Z,12.34
2022-10-12T07:19:02.577Z,12.42
2022-10-12T07:21:35.369Z,12.53
2022-10-12T07:24:07.101Z,12.56
2022-10-12T07:26:37.906Z,12.72
2022-10-12T07:29:10.056Z,12.93
2022-10-12T07:31:48.509Z,13.06
2022-10-12T07:34:25.709Z,13.18
2022-10-12T07:37:05.573Z,13.23
2022-10-12T07:39:38.639Z,13.42
2022-10-12T07:42:09.461Z,13.47
2022-10-12T07:44:40.997Z,13.59
2022-10-12T07:47:13.569Z,13.65
2022-10-12T07:49:45.672Z,13.50
2022-10-12T07:52:16.860Z,13.45
2022-10-12T07:54:49.217Z,13.58
2022-10-12T07:57:20.915Z,13.52
2022-10-12T07:59:57.502Z,13.58
2022-10-12T08:02:32.441Z,13.91
2022-10-12T08:05:04.545Z,13.95
2022-10-12T08:07:36.738Z,14.12
2022-10-12T08:10:09.811Z,14.49
2022-10-12T08:12:40.461Z,14.68
2022-10-12T08:15:13.047Z,14.79
2022-10-12T08:17:50.078Z,14.89
2022-10-12T08:20:22.635Z,15.13
2022-10-12T08:22:55.460Z,15.45
2022-10-12T08:25:27.350Z,15.35
2022-10-12T08:27:58.432Z,15.50
2022-10-12T08:30:28.899Z,15.63
2022-10-12T08:33:00.590Z,15.76
2022-10-12T08:35:32.884Z,15.70
2022-10-12T08:38:03.370Z,15.54
2022-10-12T08:40:37.782Z,15.42
2022-10-12T08:43:12.606Z,15.86
2022-10-12T08:45:55.628Z,16.04
2022-10-12T08:48:31.988Z,16.22
2022-10-12T08:51:10.634Z,16.42
2022-10-12T08:53:51.405Z,16.93
2022-10-12T08:56:23.877Z,17.58
2022-10-12T08:58:58.077Z,18.39
2022-10-12T09:01:38.829Z,18.01
2022-10-12T09:04:32.140Z,17.47
2022-10-12T09:07:11.019Z,17.16
2022-10-12T09:09:56.235Z,16.92
2022-10-12T09:12:38.155Z,16.68
2022-10-12T09:15:16.023Z,16.45
2022-10-12T09:17:51.364Z,16.49
2022-10-12T09:20:26.943Z,16.59
2022-10-12T09:23:00.606Z,16.58
2022-10-12T09:25:32.587Z,16.58
2022-10-12T09:28:18.624Z,16.40
2022-10-12T09:31:02.813Z,16.59
2022-10-12T09:33:38.433Z,17.00
2022-10-12T09:36:14.046Z,17.20
2022-10-12T09:38:47.800Z,17.12
2022-10-12T09:41:25.107Z,17.08
2022-10-12T09:44:02.542Z,17.11
2022-10-12T09:46:42.297Z,16.89
2022-10-12T09:49:15.097Z,16.89
2022-10-12T09:51:49.723Z,16.73
2022-10-12T09:54:21.539Z,16.70
2022-10-12T09:56:56.261Z,17.02
2022-10-12T09:59:34.552Z,17.10
2022-10-12T10:02:18.528Z,17.54
2022-10-12T10:04:59.866Z,18.31
2022-10-12T10:07:36.109Z,18.13
2022-10-12T10:10:17.234Z,18.20
2022-10-12T10:12:55.016Z,19.28
2022-10-12T10:15:30.892Z,19.34
2022-10-12T10:18:03.575Z,20.32
2022-10-12T10:20:36.624Z,22.11
2022-10-12T10:23:08.365Z,22.19
2022-10-12T10:25:38.467Z,23.43
2022-10-12T10:28:26.538Z,24.11
2022-10-12T10:31:04.453Z,24.48
2022-10-12T10:33:36.722Z,24.79
2022-10-12T10:36:11.807Z,25.36
2022-10-12T10:38:57.608Z,25.99
2022-10-12T10:41:33.395Z,25.71
2022-10-12T10:44:04.708Z,25.03
2022-10-12T10:46:37.728Z,24.28
2022-10-12T10:49:12.576Z,23.17
2022-10-12T10:51:46.276Z,22.84
2022-10-12T10:54:27.342Z,21.18
2022-10-12T10:57:00.621Z,20.79
2022-10-12T10:59:43.199Z,20.68
2022-10-12T11:02:28.864Z,20.48
2022-10-12T11:05:06.715Z,19.94
2022-10-12T11:07:41.811Z,19.80
2022-10-12T11:10:20.591Z,19.51
2022-10-12T11:12:56.130Z,19.42
2022-10-12T11:15:29.040Z,19.52
2022-10-12T11:18:03.552Z,19.44
2022-10-12T11:20:41.024Z,20.30
2022-10-12T11:23:20.998Z,21.27
2022-10-12T11:26:01.947Z,21.85
2022-10-12T11:28:33.964Z,22.15
2022-10-12T11:31:06.099Z,22.17
2022-10-12T11:33:40.063Z,22.49
2022-10-12T11:36:15.115Z,23.70
2022-10-12T11:38:48.752Z,24.07
2022-10-12T11:41:35.295Z,23.02
2022-10-12T11:44:09.400Z,21.92
2022-10-12T11:46:40.873Z,21.68
2022-10-12T11:49:17.240Z,21.70
2022-10-12T11:51:49.977Z,21.44
2022-10-12T11:54:29.004Z,21.35
2022-10-12T11:57:06.754Z,21.03
2022-10-12T11:59:40.673Z,20.39
2022-10-12T12:02:21.189Z,20.38
2022-10-12T12:04:53.184Z,20.12
2022-10-12T12:07:48.819Z,20.34
2022-10-12T12:11:01.100Z,20.77
2022-10-12T12:13:33.509Z,21.10
2022-10-12T12:16:34.508Z,20.79
2022-10-12T12:19:20.314Z,20.24
2022-10-12T12:22:18.968Z,20.63
2022-10-12T12:25:22.494Z,20.41
2022-10-12T12:27:54.700Z,20.26
2022-10-12T12:31:05.231Z,20.51
2022-10-12T12:33:39.284Z,20.25
2022-10-12T12:36:11.554Z,20.18
2022-10-12T12:38:43.465Z,20.55
2022-10-12T12:41:17.006Z,20.63
2022-10-12T12:44:04.828Z,20.88
2022-10-12T12:50:06.413Z,21.84
2022-10-12T12:52:42.117Z,22.18
2022-10-12T12:55:42.839Z,21.94
2022-10-12T12:58:27.579Z,22.17
2022-10-12T13:01:12.942Z,22.19
2022-10-12T13:04:14.330Z,22.50
2022-10-12T13:07:16.248Z,22.46
2022-10-12T13:10:17.304Z,22.47
2022-10-12T13:13:26.542Z,21.45
2022-10-12T13:16:06.569Z,20.93
2022-10-12T13:18:59.287Z,20.57
2022-10-12T13:21:32.267Z,20.30
2022-10-12T13:24:12.100Z,20.03
2022-10-12T13:26:44.491Z,19.71
2022-10-12T13:29:21.742Z,19.58
2022-10-12T13:31:56.010Z,19.40
2022-10-12T13:34:29.356Z,19.47
2022-10-12T13:37:02.150Z,19.15
2022-10-12T13:39:44.535Z,19.09
2022-10-12T13:42:19.432Z,18.89
2022-10-12T13:44:51.156Z,18.96
2022-10-12T13:47:27.538Z,18.92
2022-10-12T13:49:59.640Z,19.17
2022-10-12T13:52:33.252Z,19.05
2022-10-12T13:55:17.896Z,18.67
2022-10-12T13:57:51.462Z,18.46
2022-10-12T14:00:23.308Z,18.45
2022-10-12T14:02:59.567Z,18.18
2022-10-12T14:05:32.482Z,18.07
2022-10-12T14:08:07.755Z,17.84
2022-10-12T14:10:39.891Z,17.77
2022-10-12T14:13:12.448Z,17.55
2022-10-12T14:15:44.764Z,17.50
2022-10-12T14:18:38.093Z,17.37
2022-10-12T14:21:18.072Z,17.23
2022-10-12T14:23:52.491Z,17.08
2022-10-12T14:26:32.133Z,17.06
2022-10-12T14:29:02.497Z,16.98
2022-10-12T14:31:54.303Z,16.81
2022-10-12T14:34:40.158Z,16.65
2022-10-12T14:37:26.979Z,16.67
2022-10-12T14:40:02.243Z,16.65
2022-10-12T14:42:38.439Z,16.67
2022-10-12T14:45:22.847Z,16.67
2022-10-12T14:47:54.089Z,16.75
2022-10-12T14:50:24.699Z,16.80
2022-10-12T14:52:55.082Z,16.75
2022-10-12T14:55:27.383Z,16.59
2022-10-12T14:58:00.868Z,16.54
2022-10-12T15:00:33.199Z,16.62
2022-10-12T15:03:05.075Z,16.67
2022-10-12T15:05:39.259Z,16.70
2022-10-12T15:08:10.541Z,16.71
2022-10-12T15:10:43.085Z,16.56
2022-10-12T15:13:17.396Z,16.44
2022-10-12T15:15:49.303Z,16.54
2022-10-12T15:18:21.406Z,16.53
2022-10-12T15:20:52.818Z,16.79
2022-10-12T15:23:24.115Z,17.06
2022-10-12T15:25:56.492Z,17.02
2022-10-12T15:28:31.349Z,16.76
2022-10-12T15:31:16.995Z,16.54
2022-10-12T15:33:51.372Z,16.37
2022-10-12T15:36:23.631Z,16.21
2022-10-12T15:38:55.959Z,16.16
2022-10-12T15:41:29.129Z,16.03
2022-10-12T15:44:03.437Z,15.82
2022-10-12T15:46:36.182Z,15.49
2022-10-12T15:49:08.823Z,15.26
2022-10-12T15:51:42.024Z,15.02
2022-10-12T15:54:12.670Z,14.63
2022-10-12T15:56:45.241Z,14.33
2022-10-12T15:59:16.791Z,14.18
2022-10-12T16:01:49.323Z,14.12
2022-10-12T16:04:23.352Z,13.98
2022-10-12T16:06:55.325Z,13.81
2022-10-12T16:09:27.387Z,13.65
2022-10-12T16:11:57.657Z,13.48
2022-10-12T16:14:29.688Z,13.38
2022-10-12T16:17:06.825Z,13.25
2022-10-12T16:19:37.170Z,13.21
2022-10-12T16:22:08.388Z,13.02
2022-10-12T16:24:43.038Z,12.88
2022-10-12T16:27:15.771Z,12.78
2022-10-12T16:29:52.765Z,12.65
2022-10-12T16:32:27.137Z,12.57
2022-10-12T16:35:01.084Z,12.47
2022-10-12T16:37:38.146Z,12.28
2022-10-12T16:40:14.496Z,11.96
2022-10-12T16:42:50.825Z,11.80
2022-10-12T16:45:30.286Z,11.62
2022-10-12T16:48:03.606Z,11.53
2022-10-12T16:50:40.465Z,11.49
2022-10-12T16:53:14.540Z,11.43
2022-10-12T16:55:47.189Z,11.31
2022-10-12T16:58:24.583Z,11.18
2022-10-12T17:01:12.791Z,11.10
2022-10-12T17:03:55.660Z,10.97
2022-10-12T17:06:35.098Z,10.93
2022-10-12T17:09:13.914Z,10.88
2022-10-12T17:11:53.273Z,10.78
2022-10-12T17:14:34.041Z,10.73
2022-10-12T17:17:17.386Z,10.69
2022-10-12T17:19:55.812Z,10.61
2022-10-12T17:22:35.100Z,10.58
2022-10-12T17:25:14.056Z,10.58
2022-10-12T17:27:52.155Z,10.53
2022-10-12T17:30:29.539Z,10.52
2022-10-12T17:33:09.903Z,10.51
2022-10-12T17:35:50.241Z,10.54
2022-10-12T17:38:28.362Z,10.52
2022-10-12T17:41:09.213Z,10.53
2022-10-12T17:43:48.737Z,10.45
2022-10-12T17:46:27.917Z,10.41
2022-10-12T17:49:09.589Z,10.41
2022-10-12T17:51:49.215Z,10.34
2022-10-12T17:54:25.745Z,10.24
2022-10-12T17:57:04.067Z,10.20
2022-10-12T17:59:44.283Z,10.19
2022-10-12T18:02:25.224Z,10.16
2022-10-12T18:05:05.137Z,10.12
2022-10-12T18:07:43.710Z,10.00
2022-10-12T18:10:26.118Z,9.92
2022-10-12T18:13:08.226Z,9.94
2022-10-12T18:15:48.312Z,9.95
2022-10-12T18:18:29.827Z,9.90
2022-10-12T18:21:14.407Z,9.84
2022-10-12T18:23:50.442Z,9.82
2022-10-12T18:26:29.738Z,9.81
2022-10-12T18:29:13.045Z,9.79
2022-10-12T18:31:51.293Z,9.81
2022-10-12T18:34:36.332Z,9.81
2022-10-12T18:37:19.252Z,9.66
2022-10-12T18:39:58.630Z,9.75
2022-10-12T18:42:36.295Z,9.73
2022-10-12T18:45:13.811Z,9.55
2022-10-12T18:47:50.124Z,9.45
2022-10-12T18:50:27.301Z,9.43
2022-10-12T18:53:07.837Z,9.42
2022-10-12T18:55:47.217Z,9.35
2022-10-12T18:58:25.394Z,9.31
2022-10-12T19:01:06.414Z,9.30
2022-10-12T19:03:47.667Z,9.34
2022-10-12T19:06:30.670Z,9.36
2022-10-12T19:09:10.100Z,9.21
2022-10-12T19:11:49.369Z,9.30
2022-10-12T19:14:27.799Z,9.18
2022-10-12T19:17:08.281Z,9.18
2022-10-12T19:19:48.472Z,9.21
2022-10-12T19:22:23.904Z,9.22
2022-10-12T19:25:04.124Z,9.24
2022-10-12T19:27:44.563Z,9.25
2022-10-12T19:30:23.429Z,9.25
2022-10-12T19:33:01.205Z,9.22
2022-10-12T19:35:39.289Z,9.18
2022-10-12T19:38:17.927Z,9.13
2022-10-12T19:41:02.026Z,9.13
2022-10-12T19:43:42.907Z,9.11
2022-10-12T19:46:18.292Z,9.08
2022-10-12T19:48:59.484Z,9.06
2022-10-12T19:51:37.842Z,9.01
2022-10-12T19:54:14.996Z,8.97
2022-10-12T19:56:55.300Z,8.97
2022-10-12T19:59:40.301Z,8.96
2022-10-12T20:02:17.018Z,8.92
2022-10-12T20:04:58.322Z,8.93
2022-10-12T20:07:38.312Z,8.93
2022-10-12T20:10:16.120Z,8.88
2022-10-12T20:12:59.319Z,8.91
2022-10-12T20:15:42.999Z,8.84
2022-10-12T20:18:21.063Z,8.87
2022-10-12T20:20:58.114Z,8.78
2022-10-12T20:23:34.163Z,8.75
2022-10-12T20:26:17.029Z,8.70
2022-10-12T20:28:57.321Z,8.70
2022-10-12T20:31:37.326Z,8.71
2022-10-12T20:34:16.331Z,8.69
2022-10-12T20:37:23.431Z,8.66
2022-10-12T20:40:06.479Z,8.63
2022-10-12T20:42:47.450Z,8.65
2022-10-12T20:45:26.177Z,8.60
2022-10-12T20:48:05.182Z,8.61
2022-10-12T20:50:45.039Z,8.62
2022-10-12T20:53:23.334Z,8.56
2022-10-12T20:56:08.351Z,8.52
2022-10-12T21:02:50.872Z,8.49
2022-10-12T21:05:30.186Z,8.49
2022-10-12T21:08:10.129Z,8.31
2022-10-12T21:10:53.361Z,8.42
2022-10-12T21:13:33.856Z,8.41
2022-10-12T21:16:12.571Z,8.42
2022-10-12T21:18:53.582Z,8.42
2022-10-12T21:21:33.469Z,8.36
2022-10-12T21:24:12.721Z,8.30
2022-10-12T21:26:51.509Z,8.29
2022-10-12T21:29:30.886Z,8.29
2022-10-12T21:32:10.364Z,8.29
2022-10-12T21:34:54.016Z,8.27
2022-10-12T21:37:33.363Z,8.27
2022-10-12T21:40:15.114Z,8.24
2022-10-12T21:42:55.371Z,8.28
2022-10-12T21:45:36.472Z,8.24
2022-10-12T21:48:14.934Z,8.21
2022-10-12T21:51:04.286Z,8.21
2022-10-12T21:53:47.374Z,8.20
2022-10-12T21:56:28.457Z,8.13
2022-10-12T21:59:09.974Z,8.09
2022-10-12T22:01:53.385Z,8.05
2022-10-12T22:04:30.442Z,7.99
2022-10-12T22:07:12.881Z,8.03
2022-10-12T22:09:54.945Z,8.07
2022-10-12T22:12:36.121Z,8.08
2022-10-12T22:15:16.976Z,8.05
2022-10-12T22:17:57.977Z,8.01
2022-10-12T22:20:37.179Z,8.02
2022-10-12T22:23:20.089Z,7.97
2022-10-12T22:26:00.204Z,7.92
2022-10-12T22:28:39.295Z,7.92
2022-10-12T22:31:16.464Z,7.84
2022-10-12T22:33:55.840Z,7.87
2022-10-12T22:36:35.407Z,7.87
2022-10-12T22:39:20.402Z,7.87
2022-10-12T22:42:03.630Z,7.85
2022-10-12T22:44:46.672Z,7.81
2022-10-12T22:47:24.409Z,7.74
2022-10-12T22:50:03.744Z,7.78
2022-10-12T22:52:43.429Z,7.76
2022-10-12T22:55:26.414Z,7.67
2022-10-12T22:58:05.164Z,7.74
2022-10-12T23:00:40.933Z,7.74
2022-10-12T23:03:19.495Z,7.75
2022-10-12T23:06:01.049Z,7.73
2022-10-12T23:08:42.756Z,7.71
2022-10-12T23:11:26.545Z,7.68
2022-10-12T23:14:04.853Z,7.68
2022-10-12T23:16:44.094Z,7.69
2022-10-12T23:19:22.463Z,7.69
2022-10-12T23:22:04.793Z,7.56
2022-10-12T23:24:43.475Z,7.64
2022-10-12T23:27:23.461Z,7.68
2022-10-12T23:30:02.944Z,7.53
2022-10-12T23:32:43.436Z,7.63
2022-10-12T23:35:24.438Z,7.60
2022-10-12T23:38:04.017Z,7.60
2022-10-12T23:40:42.443Z,7.51
2022-10-12T23:43:22.444Z,7.49
2022-10-12T23:46:02.592Z,7.50
2022-10-12T23:48:41.674Z,7.50
2022-10-12T23:51:22.120Z,7.48
2022-10-12T23:54:03.449Z,7.43
2022-10-12T23:56:42.561Z,7.42
2022-10-12T23:59:24.455Z,7.44
